Millville Municipal Airport
KMIV : now visible

Airfield :











YOU CAN JOIN US ON...

 
LOGIN :

Register | Disclaimer

   EN    FR    IT 

 









Legend :    VFR   Marginal VFR   IFR   Intensive IFR   Very Intensive IFR
Visi :
Ceiling :
>= 8 km
>= 3000ft
5 to 8 km
1000 to 3000 ft
1500m to 5 km
500 to 1000 ft
800 to 1500m
200 to 500 ft
< 800m
< 200 ft
Symbols :   Thunderstorms  Fog  Heavy snow  Heavy precipitations  Wind > 20 kt







- Airport Elevation : 85 ft


KMIV - Millville Municipal

CURRENT METAR :
  • 181854Z AUTO 22006KT 10SM VCTS BKN033 BKN085 32/24 A2984 RMK AO2 LTG DSNT W SLP100 T03220244

EXPIRED METARs :
  • 181754Z AUTO 22006KT 10SM FEW070 SCT090 31/24 A2986 RMK AO2 SLP110 T03110244 10317 20261 56009
  • 181654Z AUTO VRB04KT 10SM SCT028 SCT037 31/25 A2987 RMK AO2 SLP112 T03110250

TAF KMIV
Valid from the 18 at 18:00 until the 19 at 18:00 UTC


181722Z 1818/1918 25004KT P6SM VCSH SCT025 BKN200
FM190200 VRB02KT 6SM BR SCT200
FM190700 VRB02KT 3SM BR BKN012
FM191400 33005KT 6SM HZ SCT025
KZDC FIR / North America



MET'MAP, your aeronautical weather chart ! - Copyright ORBIFLY December 2007 - Disclaimer

ORBIFLY MET'MAP TEAM :

Programming & Development : Alexandra Zaïnal
Concept & Development : Baudouin d'Aumeries
Co-Development & Prog : Marc-Olivier Méhu
Technical & hardware support : Manuel Goepfert

Contact : metmap@orbifly.com




SOURCES & CREDITS :

   NOAA       Earth
Advisory